Terminal Aerodrome Forecast
Issued by NWS Cleveland, OH

Home | Current Version | Previous Version | Text Only | Print | Product List | Glossary On
Versions: 1 2 3 4 5 6 7 8 9 10 11 12 13 14
344
FTUS41 KCLE 191740
TAFCAK
TAF
KCAK 191740Z 1918/2018 26008KT P6SM SKC
     FM200000 35004KT P6SM SKC
     FM200800 09004KT 3SM BR SKC
     FM201400 11006KT P6SM SCT250=

USA.gov is the U.S. government's official web portal to all federal, state and local government web resources and services.